createdAt,value
2023-05-05T00:02:16.486Z,11.95
2023-05-05T00:04:43.081Z,16.98
2023-05-05T00:07:09.838Z,15.95
2023-05-05T00:09:36.293Z,16.77
2023-05-05T00:12:03.009Z,14.85
2023-05-05T00:14:29.613Z,19.20
2023-05-05T00:16:56.662Z,20.13
2023-05-05T00:19:23.330Z,17.77
2023-05-05T00:21:49.983Z,16.33
2023-05-05T00:24:16.828Z,24.02
2023-05-05T00:26:43.422Z,14.95
2023-05-05T00:29:10.174Z,16.55
2023-05-05T00:31:37.752Z,15.60
2023-05-05T00:34:04.664Z,19.23
2023-05-05T00:36:31.447Z,14.23
2023-05-05T00:38:58.022Z,14.40
2023-05-05T00:41:24.851Z,16.95
2023-05-05T00:43:52.478Z,13.55
2023-05-05T00:46:25.269Z,13.70
2023-05-05T00:48:53.517Z,15.10
2023-05-05T00:51:21.124Z,15.07
2023-05-05T00:53:48.593Z,13.05
2023-05-05T00:56:20.840Z,16.95
2023-05-05T00:58:48.108Z,13.68
2023-05-05T01:01:15.765Z,13.27
2023-05-05T01:03:42.657Z,11.18
2023-05-05T01:06:28.075Z,11.93
2023-05-05T01:09:02.113Z,13.95
2023-05-05T01:11:58.193Z,11.40
2023-05-05T01:14:37.130Z,8.20
2023-05-05T01:17:24.411Z,7.68
2023-05-05T01:19:54.637Z,7.13
2023-05-05T01:22:27.260Z,6.80
2023-05-05T01:25:21.825Z,8.07
2023-05-05T01:28:24.189Z,8.07
2023-05-05T01:31:09.071Z,6.78
2023-05-05T01:33:44.331Z,7.22
2023-05-05T01:36:22.767Z,6.60
2023-05-05T01:38:56.505Z,8.45
2023-05-05T01:41:32.037Z,5.80
2023-05-05T01:44:01.229Z,5.60
2023-05-05T01:46:27.867Z,5.50
2023-05-05T01:48:56.967Z,5.90
2023-05-05T01:51:25.132Z,7.57
2023-05-05T01:53:54.397Z,6.43
2023-05-05T01:56:23.909Z,6.72
2023-05-05T01:58:52.470Z,8.80
2023-05-05T02:01:22.361Z,7.32
2023-05-05T02:03:51.112Z,6.70
2023-05-05T02:06:20.891Z,11.05
2023-05-05T02:08:50.032Z,8.27
2023-05-05T02:11:17.623Z,9.18
2023-05-05T02:13:45.297Z,9.52
2023-05-05T02:16:16.730Z,9.27
2023-05-05T02:18:45.978Z,9.65
2023-05-05T02:21:14.259Z,7.95
2023-05-05T02:23:40.933Z,6.72
2023-05-05T02:26:11.476Z,10.30
2023-05-05T02:28:46.607Z,7.28
2023-05-05T02:31:14.638Z,9.30
2023-05-05T02:33:43.101Z,9.43
2023-05-05T02:36:22.646Z,7.60
2023-05-05T02:38:58.078Z,7.85
2023-05-05T02:41:28.923Z,8.93
2023-05-05T02:43:58.401Z,10.63
2023-05-05T02:46:27.426Z,9.77
2023-05-05T02:48:54.752Z,7.03
2023-05-05T02:51:21.379Z,7.85
2023-05-05T02:53:48.097Z,8.48
2023-05-05T02:56:40.607Z,8.80
2023-05-05T02:59:26.413Z,12.88
2023-05-05T03:02:02.640Z,10.13
2023-05-05T03:04:41.815Z,8.35
2023-05-05T03:07:26.428Z,9.48
2023-05-05T03:10:06.526Z,11.07
2023-05-05T03:12:47.697Z,8.23
2023-05-05T03:15:25.852Z,9.98
2023-05-05T03:17:54.051Z,8.57
2023-05-05T03:20:22.143Z,12.45
2023-05-05T03:22:51.238Z,10.20
2023-05-05T03:25:17.960Z,11.50
2023-05-05T03:27:44.661Z,12.75
2023-05-05T03:30:14.593Z,10.88
2023-05-05T03:32:47.437Z,10.27
2023-05-05T03:35:14.349Z,12.85
2023-05-05T03:37:41.061Z,13.73
2023-05-05T03:40:08.455Z,10.68
2023-05-05T03:42:35.262Z,10.45
2023-05-05T03:45:02.140Z,13.73
2023-05-05T03:47:28.804Z,12.38
2023-05-05T03:49:56.886Z,10.20
2023-05-05T03:52:23.413Z,12.10
2023-05-05T03:54:50.204Z,11.98
2023-05-05T03:57:18.008Z,10.57
2023-05-05T03:59:44.760Z,13.55
2023-05-05T04:02:11.498Z,12.27
2023-05-05T04:04:38.126Z,11.13
2023-05-05T04:07:04.671Z,11.60
2023-05-05T04:09:32.143Z,11.38
2023-05-05T04:11:58.946Z,13.00
2023-05-05T04:14:25.591Z,15.20
2023-05-05T04:16:52.519Z,13.15
2023-05-05T04:19:19.509Z,12.32
2023-05-05T04:21:46.574Z,16.52
2023-05-05T04:24:13.705Z,12.82
2023-05-05T04:26:40.522Z,13.13
2023-05-05T04:29:07.096Z,10.50
2023-05-05T04:31:33.767Z,11.68
2023-05-05T04:34:00.731Z,17.08
2023-05-05T04:36:27.520Z,15.63
2023-05-05T04:38:54.827Z,12.02
2023-05-05T04:41:21.654Z,12.45
2023-05-05T04:43:49.091Z,14.15
2023-05-05T04:46:15.785Z,13.88
2023-05-05T04:48:42.701Z,13.65
2023-05-05T04:51:09.512Z,14.25
2023-05-05T04:53:37.358Z,12.45
2023-05-05T04:56:04.302Z,15.95
2023-05-05T04:58:31.248Z,16.48
2023-05-05T05:00:58.575Z,14.70
2023-05-05T05:03:25.513Z,13.15
2023-05-05T05:05:53.587Z,12.65
2023-05-05T05:08:20.375Z,13.13
2023-05-05T05:10:47.023Z,12.75
2023-05-05T05:13:13.915Z,13.20
2023-05-05T05:15:41.038Z,16.45
2023-05-05T05:18:07.901Z,15.18
2023-05-05T05:20:34.754Z,16.50
2023-05-05T05:23:02.313Z,14.60
2023-05-05T05:25:33.329Z,16.58
2023-05-05T05:28:09.435Z,20.67
2023-05-05T05:30:39.586Z,16.00
2023-05-05T05:33:08.237Z,15.50
2023-05-05T05:35:36.959Z,14.88
2023-05-05T05:38:04.330Z,13.13
2023-05-05T05:40:31.643Z,16.00
2023-05-05T05:42:59.419Z,15.05
2023-05-05T05:45:27.272Z,17.20
2023-05-05T05:47:56.485Z,14.18
2023-05-05T05:50:27.728Z,13.68
2023-05-05T05:52:56.054Z,15.48
2023-05-05T05:55:24.767Z,16.33
2023-05-05T05:57:52.949Z,13.98
2023-05-05T06:00:20.740Z,14.05
2023-05-05T06:02:54.353Z,15.60
2023-05-05T06:05:25.050Z,14.52
2023-05-05T06:07:52.659Z,14.77
2023-05-05T06:12:54.126Z,17.48
2023-05-05T06:15:21.137Z,15.98
2023-05-05T06:17:48.090Z,17.05
2023-05-05T06:20:14.900Z,21.58
2023-05-05T06:22:41.677Z,15.35
2023-05-05T06:25:08.916Z,15.82
2023-05-05T06:27:36.694Z,12.52
2023-05-05T06:30:03.799Z,14.48
2023-05-05T06:32:30.667Z,14.98
2023-05-05T06:34:57.313Z,16.27
2023-05-05T06:37:24.312Z,13.35
2023-05-05T06:39:51.026Z,17.88
2023-05-05T06:42:17.999Z,13.43
2023-05-05T06:44:45.760Z,14.43
2023-05-05T06:47:12.667Z,13.23
2023-05-05T06:49:39.470Z,12.40
2023-05-05T06:52:08.235Z,14.32
2023-05-05T06:54:35.005Z,12.05
2023-05-05T06:57:01.828Z,14.48
2023-05-05T06:59:28.419Z,12.85
2023-05-05T07:01:55.177Z,10.70
2023-05-05T07:04:21.755Z,12.02
2023-05-05T07:06:48.740Z,14.10
2023-05-05T07:09:17.101Z,21.00
2023-05-05T07:11:44.397Z,12.85
2023-05-05T07:14:11.393Z,12.70
2023-05-05T07:16:38.780Z,11.15
2023-05-05T07:19:06.254Z,18.08
2023-05-05T07:21:36.708Z,12.88
2023-05-05T07:24:04.009Z,12.13
2023-05-05T07:26:30.938Z,11.00
2023-05-05T07:28:58.888Z,11.75
2023-05-05T07:31:26.502Z,12.05
2023-05-05T07:33:53.464Z,10.40
2023-05-05T07:36:20.491Z,9.60
2023-05-05T07:38:47.767Z,8.75
2023-05-05T07:41:14.466Z,8.80
2023-05-05T07:43:44.171Z,11.13
2023-05-05T07:46:11.923Z,9.98
2023-05-05T07:48:41.551Z,8.20
2023-05-05T07:51:09.357Z,7.40
2023-05-05T07:53:36.553Z,5.93
2023-05-05T07:56:03.788Z,10.48
2023-05-05T07:58:30.846Z,10.18
2023-05-05T08:00:57.919Z,11.35
2023-05-05T08:03:25.110Z,9.27
2023-05-05T08:06:05.827Z,9.90
2023-05-05T08:08:32.893Z,8.68
2023-05-05T08:10:59.506Z,11.13
2023-05-05T08:13:26.296Z,7.90
2023-05-05T08:15:53.662Z,9.75
2023-05-05T08:18:20.351Z,14.23
2023-05-05T08:20:47.008Z,16.95
2023-05-05T08:23:13.683Z,10.18
2023-05-05T08:25:40.888Z,15.23
2023-05-05T08:28:07.746Z,15.77
2023-05-05T08:30:34.834Z,12.88
2023-05-05T08:33:01.887Z,12.68
2023-05-05T08:35:28.797Z,11.70
2023-05-05T08:37:58.151Z,14.93
2023-05-05T08:40:33.807Z,9.85
2023-05-05T08:43:01.452Z,12.63
2023-05-05T08:45:29.356Z,11.95
2023-05-05T08:48:04.172Z,10.70
2023-05-05T08:50:32.294Z,11.13
2023-05-05T08:53:10.685Z,10.75
2023-05-05T08:55:52.803Z,12.98
2023-05-05T08:58:20.195Z,17.25
2023-05-05T09:00:47.183Z,12.48
2023-05-05T09:03:16.155Z,15.20
2023-05-05T09:05:44.553Z,13.75
2023-05-05T09:08:12.973Z,13.13
2023-05-05T09:10:41.987Z,17.40
2023-05-05T09:13:09.204Z,18.00
2023-05-05T09:15:38.822Z,16.08
2023-05-05T09:18:10.260Z,16.48
2023-05-05T09:20:41.217Z,17.73
2023-05-05T09:23:11.228Z,20.25
2023-05-05T09:25:41.459Z,11.48
2023-05-05T09:28:16.672Z,15.52
2023-05-05T09:30:47.627Z,12.27
2023-05-05T09:33:14.480Z,13.45
2023-05-05T09:35:53.613Z,12.40
2023-05-05T09:38:21.691Z,14.73
2023-05-05T09:40:53.398Z,14.30
2023-05-05T09:43:22.680Z,11.40
2023-05-05T09:45:51.077Z,15.50
2023-05-05T09:48:34.994Z,15.38
2023-05-05T09:51:01.968Z,16.60
2023-05-05T09:53:39.136Z,16.35
2023-05-05T09:56:06.920Z,14.48
2023-05-05T09:58:33.885Z,13.75
2023-05-05T10:01:00.754Z,16.70
2023-05-05T10:03:27.634Z,18.27
2023-05-05T10:05:56.824Z,17.77
2023-05-05T10:08:27.066Z,17.42
2023-05-05T10:10:54.904Z,18.45
2023-05-05T10:13:23.847Z,16.98
2023-05-05T10:15:52.860Z,18.55
2023-05-05T10:18:27.457Z,18.85
2023-05-05T10:20:59.557Z,21.02
2023-05-05T10:23:48.412Z,23.23
2023-05-05T10:26:17.355Z,19.70
2023-05-05T10:28:49.198Z,19.88
2023-05-05T10:31:26.472Z,16.50
2023-05-05T10:34:00.421Z,15.32
2023-05-05T10:36:27.899Z,6.18
2023-05-05T10:38:59.882Z,6.55
2023-05-05T10:41:26.974Z,7.70
2023-05-05T10:43:56.573Z,5.57
2023-05-05T10:46:25.563Z,5.28
2023-05-05T10:49:23.249Z,20.25
2023-05-05T10:51:59.733Z,5.28
2023-05-05T10:55:07.654Z,5.80
2023-05-05T10:57:39.131Z,5.43
2023-05-05T11:00:08.782Z,10.43
2023-05-05T11:02:36.158Z,6.18
2023-05-05T11:05:21.034Z,6.07
2023-05-05T11:07:50.062Z,8.05
2023-05-05T11:10:20.886Z,8.25
2023-05-05T11:12:59.401Z,5.00
2023-05-05T11:15:26.055Z,5.65
2023-05-05T11:17:54.079Z,4.45
2023-05-05T11:20:39.753Z,7.20
2023-05-05T11:23:06.602Z,6.60
2023-05-05T11:25:38.583Z,5.03
2023-05-05T11:28:09.684Z,5.30
2023-05-05T11:30:59.828Z,8.35
2023-05-05T11:33:37.068Z,6.65
2023-05-05T11:36:07.772Z,6.68
2023-05-05T11:38:49.810Z,5.90
2023-05-05T11:41:19.840Z,4.88
2023-05-05T11:43:46.465Z,7.10
2023-05-05T11:46:14.828Z,5.50
2023-05-05T11:48:47.949Z,6.70
2023-05-05T11:51:17.056Z,7.40
2023-05-05T11:53:44.258Z,6.57
2023-05-05T11:56:12.243Z,6.30
2023-05-05T11:58:39.019Z,7.03
2023-05-05T12:01:07.124Z,10.25
2023-05-05T12:03:40.770Z,5.93
2023-05-05T12:06:09.980Z,7.78
2023-05-05T12:08:37.931Z,5.35
2023-05-05T12:11:06.787Z,8.30
2023-05-05T12:13:33.418Z,8.95
2023-05-05T12:16:14.489Z,9.20
2023-05-05T12:18:42.148Z,8.10
2023-05-05T12:21:14.710Z,7.07
2023-05-05T12:23:41.338Z,7.03
2023-05-05T12:26:08.083Z,7.57
2023-05-05T12:28:48.481Z,6.63
2023-05-05T12:31:15.977Z,9.27
2023-05-05T12:33:43.129Z,8.40
2023-05-05T12:36:12.175Z,6.18
2023-05-05T12:38:39.155Z,6.75
2023-05-05T12:41:05.933Z,7.80
2023-05-05T12:43:36.820Z,7.88
2023-05-05T12:46:12.760Z,7.38
2023-05-05T12:48:42.756Z,8.52
2023-05-05T12:51:21.282Z,7.03
2023-05-05T12:53:50.011Z,6.35
2023-05-05T12:56:34.233Z,8.65
2023-05-05T12:59:02.477Z,9.30
2023-05-05T13:01:29.727Z,7.15
2023-05-05T13:04:12.980Z,9.50
2023-05-05T13:06:41.515Z,9.35
2023-05-05T13:09:10.066Z,9.70
2023-05-05T13:11:38.202Z,11.20
2023-05-05T13:14:06.889Z,11.35
2023-05-05T13:16:34.113Z,10.90
2023-05-05T13:19:00.871Z,11.00
2023-05-05T13:21:28.074Z,7.85
2023-05-05T13:23:59.096Z,5.05
2023-05-05T13:26:31.893Z,8.35
2023-05-05T13:28:58.511Z,6.07
2023-05-05T13:31:25.193Z,4.80
2023-05-05T13:33:52.338Z,7.65
2023-05-05T13:36:19.061Z,5.25
2023-05-05T13:38:46.096Z,5.85
2023-05-05T13:41:12.803Z,4.72
2023-05-05T13:43:39.440Z,2.25
2023-05-05T13:46:19.198Z,2.30
2023-05-05T13:48:47.419Z,2.28
2023-05-05T13:51:14.112Z,3.90
2023-05-05T13:53:43.853Z,3.55
2023-05-05T13:56:10.927Z,3.95
2023-05-05T13:58:37.980Z,4.03
2023-05-05T14:01:04.813Z,2.35
2023-05-05T14:03:31.554Z,4.03
2023-05-05T14:05:58.292Z,5.22
2023-05-05T14:08:25.002Z,2.85
2023-05-05T14:10:52.275Z,4.57
2023-05-05T14:13:19.248Z,3.30
2023-05-05T14:15:46.553Z,2.58
2023-05-05T14:18:13.394Z,3.20
2023-05-05T14:20:40.045Z,4.32
2023-05-05T14:23:07.689Z,4.60
2023-05-05T14:25:34.475Z,2.95
2023-05-05T14:28:01.074Z,1.83
2023-05-05T14:30:27.772Z,2.38
2023-05-05T14:32:54.537Z,2.40
2023-05-05T14:35:21.312Z,1.52
2023-05-05T14:37:48.006Z,1.75
2023-05-05T14:40:14.915Z,2.97
2023-05-05T14:42:41.627Z,2.30
2023-05-05T14:45:11.308Z,3.70
2023-05-05T14:47:38.015Z,2.90
2023-05-05T14:50:05.552Z,5.40
2023-05-05T14:52:32.170Z,3.67
2023-05-05T14:54:58.668Z,3.10
2023-05-05T14:57:25.423Z,3.42
2023-05-05T14:59:53.024Z,2.83
2023-05-05T15:02:19.730Z,4.95
2023-05-05T15:04:48.038Z,4.70
2023-05-05T15:07:15.894Z,5.75
2023-05-05T15:09:42.511Z,5.63
2023-05-05T15:12:09.051Z,4.55
2023-05-05T15:14:36.735Z,3.47
2023-05-05T15:17:03.692Z,3.45
2023-05-05T15:19:31.062Z,3.33
2023-05-05T15:21:57.648Z,3.75
2023-05-05T15:24:24.238Z,3.42
2023-05-05T15:26:51.368Z,4.78
2023-05-05T15:29:17.936Z,2.63
2023-05-05T15:31:47.325Z,3.97
2023-05-05T15:34:13.912Z,3.65
2023-05-05T15:36:40.653Z,1.92
2023-05-05T15:39:07.197Z,2.75
2023-05-05T15:41:34.374Z,4.10
2023-05-05T15:44:03.108Z,2.63
2023-05-05T15:46:33.521Z,3.45
2023-05-05T15:49:00.294Z,4.38
2023-05-05T15:51:27.377Z,2.70
2023-05-05T15:53:54.141Z,3.67
2023-05-05T15:56:20.866Z,3.67
2023-05-05T15:58:47.472Z,3.50
2023-05-05T16:01:14.143Z,3.80
2023-05-05T16:03:44.138Z,2.97
2023-05-05T16:06:14.125Z,4.15
2023-05-05T16:08:41.206Z,5.70
2023-05-05T16:11:07.982Z,9.30
2023-05-05T16:13:34.834Z,3.47
2023-05-05T16:16:01.745Z,2.63
2023-05-05T16:18:28.328Z,3.40
2023-05-05T16:20:54.961Z,4.00
2023-05-05T16:23:21.594Z,2.15
2023-05-05T16:25:48.288Z,3.08
2023-05-05T16:28:14.887Z,2.33
2023-05-05T16:30:43.096Z,2.85
2023-05-05T16:33:10.090Z,3.15
2023-05-05T16:35:36.848Z,2.80
2023-05-05T16:38:03.611Z,3.53
2023-05-05T16:40:30.326Z,2.20
2023-05-05T16:42:56.960Z,3.15
2023-05-05T16:45:24.668Z,3.78
2023-05-05T16:47:51.370Z,3.58
2023-05-05T16:50:19.311Z,4.03
2023-05-05T16:52:46.200Z,5.05
2023-05-05T16:55:13.133Z,4.72
2023-05-05T16:57:40.049Z,5.10
2023-05-05T17:00:10.935Z,3.90
2023-05-05T17:06:58.574Z,3.90
2023-05-05T17:11:52.145Z,6.68
2023-05-05T17:14:18.911Z,5.40
2023-05-05T17:16:46.892Z,4.00
2023-05-05T17:19:13.967Z,5.35
2023-05-05T17:21:40.655Z,6.72
2023-05-05T17:24:08.373Z,5.65
2023-05-05T17:26:35.313Z,5.90
2023-05-05T17:29:02.719Z,7.47
2023-05-05T17:31:29.532Z,6.90
2023-05-05T17:33:56.359Z,6.97
2023-05-05T17:36:23.228Z,6.53
2023-05-05T17:38:50.070Z,5.63
2023-05-05T17:41:17.511Z,5.50
2023-05-05T17:43:44.373Z,8.10
2023-05-05T17:46:11.529Z,6.45
2023-05-05T17:48:38.626Z,7.32
2023-05-05T17:51:05.571Z,6.10
2023-05-05T17:53:32.530Z,6.38
2023-05-05T17:55:59.584Z,7.18
2023-05-05T17:58:26.429Z,6.35
2023-05-05T18:00:54.491Z,7.82
2023-05-05T18:03:21.415Z,4.88
2023-05-05T18:05:48.101Z,4.90
2023-05-05T18:08:14.881Z,5.65
2023-05-05T18:10:42.265Z,5.57
2023-05-05T18:13:08.973Z,5.72
2023-05-05T18:15:35.737Z,5.90
2023-05-05T18:18:04.602Z,6.60
2023-05-05T18:20:31.102Z,6.57
2023-05-05T18:22:58.940Z,6.40
2023-05-05T18:25:26.469Z,7.90
2023-05-05T18:27:53.294Z,5.63
2023-05-05T18:30:21.286Z,7.78
2023-05-05T18:32:48.976Z,5.65
2023-05-05T18:35:16.039Z,7.43
2023-05-05T18:37:42.871Z,7.20
2023-05-05T18:40:10.339Z,6.47
2023-05-05T18:42:37.085Z,5.85
2023-05-05T18:45:04.232Z,6.10
2023-05-05T18:47:31.129Z,6.53
2023-05-05T18:49:58.061Z,6.22
2023-05-05T18:52:25.108Z,6.35
2023-05-05T18:54:51.742Z,6.00
2023-05-05T18:57:18.481Z,6.07
2023-05-05T18:59:46.098Z,7.05
2023-05-05T19:02:12.747Z,6.80
2023-05-05T19:04:40.277Z,6.10
2023-05-05T19:07:08.015Z,8.13
2023-05-05T19:09:34.908Z,6.25
2023-05-05T19:12:02.953Z,7.65
2023-05-05T19:14:31.258Z,6.70
2023-05-05T19:16:59.185Z,6.20
2023-05-05T19:19:26.498Z,5.57
2023-05-05T19:21:53.528Z,7.18
2023-05-05T19:24:20.288Z,6.85
2023-05-05T19:26:48.029Z,6.07
2023-05-05T19:29:16.083Z,8.20
2023-05-05T19:31:43.296Z,7.32
2023-05-05T19:34:10.066Z,5.90
2023-05-05T19:36:36.984Z,7.95
2023-05-05T19:39:04.925Z,7.95
2023-05-05T19:41:32.752Z,6.75
2023-05-05T19:44:00.165Z,7.25
2023-05-05T19:46:28.436Z,5.82
2023-05-05T19:48:55.815Z,8.60
2023-05-05T19:51:22.741Z,7.47
2023-05-05T19:53:50.370Z,8.52
2023-05-05T19:56:17.180Z,9.63
2023-05-05T19:58:57.633Z,9.90
2023-05-05T20:01:25.501Z,7.55
2023-05-05T20:03:54.716Z,6.82
2023-05-05T20:06:22.205Z,8.10
2023-05-05T20:08:48.789Z,8.45
2023-05-05T20:11:16.910Z,8.60
2023-05-05T20:13:43.850Z,8.90
2023-05-05T20:16:11.024Z,7.32
2023-05-05T20:18:39.109Z,9.52
2023-05-05T20:21:06.152Z,20.10
2023-05-05T20:23:34.098Z,14.38
2023-05-05T20:26:02.012Z,12.45
2023-05-05T20:28:31.740Z,12.98
2023-05-05T20:30:58.865Z,10.55
2023-05-05T20:33:25.372Z,11.18
2023-05-05T20:35:52.194Z,8.35
2023-05-05T20:38:19.407Z,7.70
2023-05-05T20:40:46.219Z,8.50
2023-05-05T20:43:12.748Z,9.52
2023-05-05T20:45:39.656Z,9.13
2023-05-05T20:48:09.704Z,9.20
2023-05-05T20:50:40.996Z,9.55
2023-05-05T20:53:09.143Z,12.65
2023-05-05T20:55:35.997Z,10.30
2023-05-05T20:58:04.582Z,9.18
2023-05-05T21:00:31.706Z,11.05
2023-05-05T21:02:58.862Z,11.07
2023-05-05T21:05:26.032Z,10.77
2023-05-05T21:07:54.160Z,11.88
2023-05-05T21:10:21.131Z,10.77
2023-05-05T21:12:47.923Z,8.32
2023-05-05T21:15:16.516Z,11.65
2023-05-05T21:17:43.360Z,12.20
2023-05-05T21:20:10.813Z,12.43
2023-05-05T21:22:37.916Z,13.02
2023-05-05T21:25:13.942Z,13.00
2023-05-05T21:27:41.514Z,11.32
2023-05-05T21:30:10.939Z,10.27
2023-05-05T21:32:40.279Z,14.40
2023-05-05T21:35:08.818Z,11.25
2023-05-05T21:37:37.944Z,11.45
2023-05-05T21:40:10.783Z,14.82
2023-05-05T21:42:37.978Z,11.55
2023-05-05T21:45:05.137Z,15.98
2023-05-05T21:47:33.236Z,13.98
2023-05-05T21:50:00.286Z,13.63
2023-05-05T21:52:27.241Z,15.10
2023-05-05T21:54:54.232Z,12.07
2023-05-05T21:57:21.450Z,13.30
2023-05-05T21:59:48.382Z,12.57
2023-05-05T22:02:15.162Z,13.50
2023-05-05T22:04:41.990Z,15.82
2023-05-05T22:07:08.679Z,14.00
2023-05-05T22:09:35.506Z,13.18
2023-05-05T22:12:02.645Z,20.08
2023-05-05T22:14:29.328Z,14.02
2023-05-05T22:16:56.014Z,15.55
2023-05-05T22:19:22.755Z,12.35
2023-05-05T22:21:49.363Z,14.75
2023-05-05T22:24:15.927Z,13.38
2023-05-05T22:26:43.345Z,15.30
2023-05-05T22:29:11.088Z,13.60
2023-05-05T22:31:38.123Z,17.50
2023-05-05T22:34:04.799Z,16.85
2023-05-05T22:36:31.809Z,17.70
2023-05-05T22:38:58.658Z,17.13
2023-05-05T22:41:25.712Z,15.23
2023-05-05T22:43:52.414Z,15.35
2023-05-05T22:46:19.021Z,16.88
2023-05-05T22:48:46.094Z,19.52
2023-05-05T22:51:13.481Z,16.88
2023-05-05T22:53:40.451Z,14.40
2023-05-05T22:56:08.546Z,17.55
2023-05-05T22:58:35.328Z,16.92
2023-05-05T23:01:02.132Z,15.77
2023-05-05T23:03:28.939Z,18.20
2023-05-05T23:05:56.811Z,16.85
2023-05-05T23:08:24.090Z,16.25
2023-05-05T23:10:51.115Z,15.65
2023-05-05T23:13:17.790Z,14.88
2023-05-05T23:15:44.483Z,15.90
2023-05-05T23:18:11.210Z,18.45
2023-05-05T23:20:38.029Z,15.65
2023-05-05T23:23:04.804Z,16.95
2023-05-05T23:25:31.465Z,21.10
2023-05-05T23:27:58.017Z,15.77
2023-05-05T23:30:24.691Z,19.77
2023-05-05T23:32:51.314Z,16.73
2023-05-05T23:35:18.104Z,17.55
2023-05-05T23:37:44.877Z,15.52
2023-05-05T23:40:11.860Z,22.90
2023-05-05T23:42:38.435Z,17.85
2023-05-05T23:45:05.458Z,19.83
2023-05-05T23:47:32.400Z,16.38
2023-05-05T23:49:59.428Z,19.63
2023-05-05T23:52:25.898Z,21.17
2023-05-05T23:54:52.619Z,18.08
2023-05-05T23:57:19.180Z,16.95
2023-05-05T23:59:45.909Z,19.48
